Time;durP1;ratioP1;P1;durP2;ratioP2;P2;SDS_P1;SDS_P2;PMS_P1;PMS_P2;Temp;Humidity;BMP_temperature;BMP_pressure;BME280_temperature;BME280_humidity;BME280_pressure;Samples;Min_cycle;Max_cycle;Signal;HPM_P1;HPM_P2
2023/10/03 05:51:15;;;;;;;;;7.50;5.75;;;;;27.65;51.80;101149.41;5134221;27;45445;-59
2023/10/03 05:53:41;;;;;;;;;8.50;8.50;;;;;27.98;50.34;101138.41;5116400;27;45408;-59
2023/10/03 05:56:10;;;;;;;;;7.50;7.25;;;;;27.98;50.36;101138.41;5116644;27;45344;-59
2023/10/03 05:58:36;;;;;;;;;7.25;7.25;;;;;28.28;49.35;101168.03;5116161;27;45426;-59
2023/10/03 06:01:02;;;;;;;;;9.75;7.25;;;;;28.32;49.40;101168.53;5115740;27;47124;-59
2023/10/03 06:03:27;;;;;;;;;9.75;9.75;;;;;27.93;50.48;101176.63;5116382;27;45391;-58
2023/10/03 06:05:53;;;;;;;;;7.00;7.00;;;;;28.05;50.75;101144.94;5116353;27;45427;-58
2023/10/03 06:08:18;;;;;;;;;12.50;8.75;;;;;28.14;50.46;101128.22;5116724;27;45472;-58
2023/10/03 06:10:44;;;;;;;;;8.00;7.00;;;;;28.43;50.12;101129.53;5116000;27;45534;-58
2023/10/03 06:13:10;;;;;;;;;8.50;8.50;;;;;28.31;49.93;101144.75;5115499;27;57659;-55
2023/10/03 06:15:36;;;;;;;;;3.75;3.75;;;;;28.38;49.47;101143.00;5116079;27;45526;-55
2023/10/03 06:18:02;;;;;;;;;10.00;6.25;;;;;28.39;49.21;101148.34;5115936;27;46011;-56
2023/10/03 06:20:28;;;;;;;;;6.75;6.75;;;;;28.41;49.47;101142.66;5115932;27;47464;-58
2023/10/03 06:22:54;;;;;;;;;7.00;7.00;;;;;28.39;48.85;101139.22;5116054;27;45400;-55
2023/10/03 06:25:19;;;;;;;;;8.75;8.75;;;;;28.59;48.71;101155.19;5115445;27;45460;-57
2023/10/03 06:27:45;;;;;;;;;8.50;6.00;;;;;28.65;49.02;101139.84;5116306;27;45305;-56
2023/10/03 06:30:10;;;;;;;;;10.25;9.00;;;;;28.65;48.17;101134.31;5115870;27;45423;-56
2023/10/03 06:32:35;;;;;;;;;7.50;5.75;;;;;28.77;48.39;101143.06;5116041;27;45247;-56
2023/10/03 06:35:05;;;;;;;;;10.75;9.00;;;;;28.64;48.37;101137.25;5116028;27;45397;-57
2023/10/03 06:37:30;;;;;;;;;7.75;7.75;;;;;28.65;48.31;101145.34;5115884;27;45958;-56
2023/10/03 06:39:56;;;;;;;;;7.00;7.00;;;;;28.40;48.78;101152.84;5115111;27;46199;-52
2023/10/03 06:42:22;;;;;;;;;7.75;7.75;;;;;28.54;48.74;101131.94;5109469;27;45517;-56
2023/10/03 06:44:48;;;;;;;;;5.50;5.50;;;;;28.64;48.98;101129.81;5105541;27;45387;-56
2023/10/03 06:47:13;;;;;;;;;8.75;6.75;;;;;28.58;48.77;101136.91;5115995;27;45169;-55
2023/10/03 06:49:39;;;;;;;;;9.25;6.25;;;;;28.64;48.75;101126.19;5115671;27;45439;-55
2023/10/03 06:52:04;;;;;;;;;6.25;6.25;;;;;28.70;48.69;101137.38;5102600;27;45287;-54
2023/10/03 06:54:29;;;;;;;;;7.50;7.50;;;;;28.53;49.14;101150.38;5102456;27;45714;-56
2023/10/03 06:56:55;;;;;;;;;7.25;7.25;;;;;28.59;49.32;101154.31;5101809;27;45204;-55
2023/10/03 06:59:20;;;;;;;;;6.00;6.00;;;;;28.83;49.02;101151.53;5101906;27;46242;-55
2023/10/03 07:01:46;;;;;;;;;10.25;8.50;;;;;28.95;48.19;101163.88;5102036;27;45358;-55
2023/10/03 07:04:11;;;;;;;;;7.00;7.00;;;;;28.92;48.11;101172.50;5102411;27;45621;-56
2023/10/03 07:06:37;;;;;;;;;7.25;7.25;;;;;29.03;48.64;101189.72;5101906;27;48939;-56
2023/10/03 07:09:08;;;;;;;;;10.50;8.75;;;;;29.13;47.76;101201.41;5101908;27;46177;-55
2023/10/03 07:11:34;;;;;;;;;6.25;6.25;;;;;29.11;47.64;101212.63;5101474;27;45317;-54
2023/10/03 07:13:59;;;;;;;;;9.75;8.25;;;;;29.05;47.79;101212.50;5102040;27;45300;-55
2023/10/03 07:16:25;;;;;;;;;7.75;6.25;;;;;28.77;48.27;101228.63;5088661;27;45522;-55
2023/10/03 07:18:50;;;;;;;;;8.00;8.00;;;;;28.66;48.97;101237.25;5101559;27;46349;-57
2023/10/03 07:21:15;;;;;;;;;10.25;8.25;;;;;28.63;49.35;101241.22;5101425;27;45297;-56
2023/10/03 07:23:42;;;;;;;;;10.75;10.50;;;;;28.41;49.38;101220.72;5101862;27;45378;-56
2023/10/03 07:26:07;;;;;;;;;6.50;6.50;;;;;28.52;49.32;101239.69;5101168;27;45458;-55
2023/10/03 07:28:33;;;;;;;;;8.50;8.25;;;;;28.60;49.31;101230.53;5101422;27;47063;-57
2023/10/03 07:30:58;;;;;;;;;9.50;9.50;;;;;28.57;49.83;101250.22;5101537;27;45318;-57
2023/10/03 07:33:23;;;;;;;;;9.75;9.75;;;;;28.42;50.20;101246.41;5101386;27;46694;-56
2023/10/03 07:35:49;;;;;;;;;12.25;10.25;;;;;28.15;50.82;101247.63;5101548;27;45367;-56
2023/10/03 07:38:15;;;;;;;;;7.25;7.25;;;;;28.24;50.86;101239.19;5101375;27;46087;-57
2023/10/03 07:40:41;;;;;;;;;8.50;8.50;;;;;28.51;49.79;101229.69;5100772;27;45322;-58
2023/10/03 07:43:10;;;;;;;;;7.25;7.25;;;;;28.74;49.39;101216.03;5087523;27;45358;-54
2023/10/03 07:45:37;;;;;;;;;9.75;6.00;;;;;28.83;49.07;101230.69;5101174;27;45487;-58
2023/10/03 07:48:05;;;;;;;;;8.00;6.00;;;;;29.08;48.81;101243.38;5101309;27;45383;-55
2023/10/03 07:50:31;;;;;;;;;7.25;5.25;;;;;29.09;48.05;101245.09;5099932;27;45466;-56
2023/10/03 07:52:57;;;;;;;;;7.00;7.00;;;;;28.89;49.05;101233.59;5101198;27;45388;-56
2023/10/03 07:55:26;;;;;;;;;9.25;8.00;;;;;28.94;48.27;101255.13;5100916;27;45310;-57
2023/10/03 07:57:54;;;;;;;;;6.75;6.50;;;;;29.08;48.46;101264.59;5100903;27;46283;-57
2023/10/03 08:00:26;;;;;;;;;7.50;5.50;;;;;29.10;48.05;101262.50;5100919;27;45214;-57
2023/10/03 08:02:52;;;;;;;;;5.75;5.75;;;;;28.72;49.01;101267.78;5099835;27;45270;-56
2023/10/03 08:05:17;;;;;;;;;10.00;7.00;;;;;28.96;47.95;101275.16;5100837;27;45479;-55
2023/10/03 08:07:47;;;;;;;;;7.75;5.50;;;;;29.08;47.96;101275.66;5100609;27;47024;-54
2023/10/03 08:10:14;;;;;;;;;6.00;6.00;;;;;29.15;48.09;101284.94;5100704;27;45329;-57
2023/10/03 08:12:40;;;;;;;;;6.00;6.00;;;;;28.83;49.11;101302.47;5100857;27;45287;-57
2023/10/03 08:15:17;;;;;;;;;4.25;4.25;;;;;28.83;48.50;101288.66;5100833;27;45316;-56
2023/10/03 08:17:48;;;;;;;;;6.25;5.00;;;;;28.74;48.55;101304.34;5100657;27;47077;-56
2023/10/03 08:20:14;;;;;;;;;7.00;7.00;;;;;28.32;50.09;101306.44;5100872;27;45307;-58
2023/10/03 08:22:41;;;;;;;;;8.00;7.00;;;;;28.55;49.41;101357.97;5100836;27;45407;-58
2023/10/03 08:25:08;;;;;;;;;3.75;3.75;;;;;28.39;47.92;101382.78;5100264;27;45420;-55
2023/10/03 08:27:33;;;;;;;;;4.50;3.00;;;;;28.29;48.07;101375.72;5100599;27;45413;-56
2023/10/03 08:30:01;;;;;;;;;3.75;3.75;;;;;28.36;48.06;101390.53;5100613;27;45334;-57
2023/10/03 08:32:26;;;;;;;;;4.00;4.00;;;;;28.31;47.15;101399.34;5100849;27;45400;-57
2023/10/03 08:34:52;;;;;;;;;3.75;3.75;;;;;28.06;46.79;101398.38;5100562;27;45358;-56
2023/10/03 08:37:24;;;;;;;;;3.50;3.50;;;;;27.92;46.96;101399.00;5100413;27;45324;-57
2023/10/03 08:39:51;;;;;;;;;3.00;3.00;;;;;28.06;46.79;101409.41;5100200;27;45405;-56
2023/10/03 08:42:34;;;;;;;;;2.50;2.50;;;;;28.04;46.34;101414.22;5093769;27;45339;-55
2023/10/03 08:45:22;;;;;;;;;5.50;3.75;;;;;27.98;47.05;101409.38;5095270;27;45290;-55
2023/10/03 08:47:51;;;;;;;;;3.00;2.50;;;;;27.99;47.40;101426.75;5092997;27;45808;-57
2023/10/03 08:50:33;;;;;;;;;5.00;4.00;;;;;28.06;47.09;101449.91;5098660;27;45398;-57
2023/10/03 08:53:12;;;;;;;;;5.00;4.00;;;;;28.04;47.40;101460.22;5100319;27;45265;-57
2023/10/03 08:55:44;;;;;;;;;4.75;4.50;;;;;27.69;47.83;101441.97;5099923;27;45329;-56
2023/10/03 08:58:13;;;;;;;;;2.50;1.00;;;;;27.52;48.19;101448.38;5099623;27;46149;-57
2023/10/03 09:00:49;;;;;;;;;3.75;3.75;;;;;27.73;48.46;101458.00;5099966;27;45415;-56
2023/10/03 09:03:16;;;;;;;;;6.25;5.25;;;;;27.65;47.81;101457.94;5099942;27;45389;-56
2023/10/03 09:05:42;;;;;;;;;3.25;3.25;;;;;27.62;47.70;101474.84;5100172;27;45490;-55
2023/10/03 09:08:08;;;;;;;;;3.00;3.00;;;;;27.54;47.45;101469.28;5099801;27;46057;-56
2023/10/03 09:10:34;;;;;;;;;5.50;3.50;;;;;27.63;47.99;101471.06;5099865;27;45821;-55
2023/10/03 09:13:03;;;;;;;;;4.75;2.50;;;;;27.77;47.60;101480.59;5100069;27;45256;-57
2023/10/03 09:15:32;;;;;;;;;6.25;5.00;;;;;27.90;47.65;101489.28;5099553;27;46019;-57
2023/10/03 09:17:58;;;;;;;;;7.00;4.75;;;;;27.93;47.43;101483.44;5099895;27;45388;-57
2023/10/03 09:20:31;;;;;;;;;4.50;4.50;;;;;28.01;46.90;101507.41;5099867;27;45181;-57
2023/10/03 09:23:07;;;;;;;;;1.75;1.75;;;;;27.94;46.39;101509.09;5100236;27;45435;-56
2023/10/03 09:25:34;;;;;;;;;2.50;1.50;;;;;27.85;45.63;101500.78;5099469;27;45365;-56
2023/10/03 09:28:06;;;;;;;;;2.75;2.25;;;;;27.94;45.48;101503.59;5099453;27;46370;-57
2023/10/03 09:30:38;;;;;;;;;2.00;2.00;;;;;28.11;45.06;101522.78;5099391;27;45415;-58
2023/10/03 09:33:16;;;;;;;;;3.25;1.75;;;;;28.32;44.70;101527.06;5094465;27;45490;-56
2023/10/03 09:36:01;;;;;;;;;2.75;2.50;;;;;28.32;43.61;101538.97;5098650;27;45371;-56
2023/10/03 09:38:46;;;;;;;;;2.75;1.75;;;;;28.04;43.67;101535.53;5099408;27;46033;-56
2023/10/03 09:41:21;;;;;;;;;4.00;2.50;;;;;28.14;43.79;101554.69;5099287;27;45345;-56
2023/10/03 09:43:54;;;;;;;;;2.50;2.50;;;;;28.10;44.13;101548.63;5099741;27;45329;-55
2023/10/03 09:46:25;;;;;;;;;4.75;2.25;;;;;28.12;43.52;101546.59;5099512;27;45401;-57
2023/10/03 09:48:54;;;;;;;;;3.25;2.25;;;;;28.04;44.25;101565.84;5099227;27;46244;-56
2023/10/03 09:54:11;;;;;;;;;2.75;2.75;;;;;27.91;43.91;101565.41;5099667;27;45354;-58
2023/10/03 09:56:40;;;;;;;;;3.50;3.25;;;;;27.99;43.96;101576.47;5099159;27;45465;-55
2023/10/03 09:59:17;;;;;;;;;3.75;3.00;;;;;28.24;43.79;101602.34;5099070;27;45376;-56
2023/10/03 10:01:45;;;;;;;;;3.75;2.50;;;;;27.98;43.77;101573.91;5099344;27;45315;-55
2023/10/03 10:04:13;;;;;;;;;3.50;2.00;;;;;28.04;42.67;101582.38;5099436;27;45333;-55
2023/10/03 10:06:47;;;;;;;;;1.50;0.75;;;;;27.97;42.75;101599.75;5099283;27;45516;-57
2023/10/03 10:09:28;;;;;;;;;2.00;2.00;;;;;28.02;42.78;101616.66;5099108;27;45997;-57
2023/10/03 10:12:12;;;;;;;;;2.00;2.00;;;;;28.20;43.12;101607.31;5099150;27;45293;-58
2023/10/03 10:17:49;;;;;;;;;3.50;2.00;;;;;28.59;42.65;101613.19;5096879;27;45566;-57
2023/10/03 10:20:17;;;;;;;;;2.25;1.50;;;;;28.69;41.36;101621.34;5093226;27;46241;-57
2023/10/03 10:23:02;;;;;;;;;3.25;3.00;;;;;28.64;41.59;101631.16;5099067;27;45267;-55
2023/10/03 10:25:51;;;;;;;;;2.00;2.00;;;;;28.74;41.09;101620.84;5099214;27;45263;-57
2023/10/03 10:28:22;;;;;;;;;3.00;3.00;;;;;28.52;40.86;101627.81;5102366;27;45550;-56
2023/10/03 10:31:16;;;;;;;;;2.00;2.00;;;;;28.54;40.06;101645.06;5102360;27;46209;-56
2023/10/03 10:33:44;;;;;;;;;1.75;1.75;;;;;28.31;39.91;101641.16;5101414;27;45327;-58
2023/10/03 10:36:10;;;;;;;;;3.25;3.25;;;;;28.36;40.25;101649.81;5102699;27;45357;-55
2023/10/03 10:38:35;;;;;;;;;3.50;2.00;;;;;28.47;39.86;101650.41;5102455;27;45337;-57
2023/10/03 10:41:22;;;;;;;;;2.75;2.75;;;;;28.52;40.22;101661.78;5102181;27;45270;-58
2023/10/03 10:44:07;;;;;;;;;5.00;4.50;;;;;28.70;39.46;101664.47;5101152;27;45468;-55
2023/10/03 10:46:47;;;;;;;;;3.75;3.75;;;;;28.67;39.28;101667.53;5102223;27;45344;-57
2023/10/03 10:49:31;;;;;;;;;5.00;3.75;;;;;28.75;39.22;101683.28;5102096;27;45514;-57
2023/10/03 10:52:01;;;;;;;;;3.25;3.25;;;;;28.47;39.16;101675.22;5102199;27;46183;-56
2023/10/03 10:54:28;;;;;;;;;5.00;3.50;;;;;28.65;39.53;101677.03;5102753;27;45223;-56
2023/10/03 10:57:04;;;;;;;;;3.75;3.75;;;;;28.72;38.75;101686.38;5102193;27;45364;-57
2023/10/03 10:59:40;;;;;;;;;3.75;2.50;;;;;28.40;38.96;101690.69;5101863;27;45471;-58
2023/10/03 11:02:25;;;;;;;;;2.00;2.00;;;;;28.36;39.05;101692.03;5101980;27;45337;-57
2023/10/03 11:04:58;;;;;;;;;2.25;2.25;;;;;28.43;38.95;101693.13;5102059;27;45377;-56
2023/10/03 11:07:26;;;;;;;;;8.25;4.75;;;;;28.59;38.75;101695.09;5102218;27;45486;-55
2023/10/03 11:09:54;;;;;;;;;11.75;6.25;;;;;29.01;37.99;101700.66;5101769;27;45987;-57
2023/10/03 11:12:26;;;;;;;;;5.25;4.00;;;;;29.76;37.45;101706.22;5101741;27;46137;-57
2023/10/03 11:14:54;;;;;;;;;4.00;3.00;;;;;30.08;37.19;101711.78;5101938;27;45396;-57
2023/10/03 11:17:20;;;;;;;;;6.50;3.25;;;;;30.54;36.18;101707.38;5101854;27;45312;-57
2023/10/03 11:19:50;;;;;;;;;4.50;4.00;;;;;30.91;35.72;101722.50;5101634;27;45730;-55
2023/10/03 11:22:17;;;;;;;;;2.25;2.25;;;;;30.57;35.32;101718.13;5101439;27;46450;-57
2023/10/03 11:24:44;;;;;;;;;5.75;4.00;;;;;30.39;35.80;101714.66;5101550;27;45396;-57
2023/10/03 11:27:20;;;;;;;;;2.00;2.00;;;;;30.26;35.12;101709.69;5101741;27;45519;-59
2023/10/03 11:29:46;;;;;;;;;3.25;2.25;;;;;30.39;34.84;101725.72;5101523;27;45497;-56
2023/10/03 11:32:32;;;;;;;;;3.00;3.00;;;;;30.31;35.04;101734.03;5101523;27;47012;-57
2023/10/03 11:34:59;;;;;;;;;2.75;0.25;;;;;30.17;35.07;101734.75;5101859;27;45477;-55
2023/10/03 11:37:31;;;;;;;;;4.00;4.00;;;;;29.93;35.82;101724.56;5101675;27;45334;-57
2023/10/03 11:40:16;;;;;;;;;5.50;3.00;;;;;29.52;34.31;101749.34;5101014;27;45323;-57
2023/10/03 11:42:44;;;;;;;;;4.00;4.00;;;;;29.40;35.34;101753.50;5101506;27;45976;-56
2023/10/03 11:45:14;;;;;;;;;8.75;4.75;;;;;29.06;36.23;101753.50;5101299;27;45368;-58
2023/10/03 11:47:39;;;;;;;;;4.00;4.00;;;;;29.28;36.06;101741.84;5101500;27;45444;-56
2023/10/03 11:50:06;;;;;;;;;4.00;4.00;;;;;29.26;35.47;101754.94;5100964;27;45447;-58
2023/10/03 11:52:31;;;;;;;;;3.00;3.00;;;;;30.06;34.84;101749.81;5101356;27;45275;-56
2023/10/03 11:54:58;;;;;;;;;5.00;3.50;;;;;30.69;33.69;101746.31;5100354;27;55667;-56
2023/10/03 11:57:24;;;;;;;;;4.25;3.25;;;;;31.02;32.97;101750.69;5101311;27;45364;-57
2023/10/03 11:59:50;;;;;;;;;4.00;4.00;;;;;32.25;32.53;101748.88;5100762;27;45372;-56
2023/10/03 12:02:15;;;;;;;;;2.50;2.00;;;;;33.35;30.34;101744.34;5101065;27;45301;-55
2023/10/03 12:04:40;;;;;;;;;4.25;2.75;;;;;34.69;29.06;101763.91;5101236;27;45343;-58
2023/10/03 12:07:06;;;;;;;;;3.25;3.00;;;;;35.52;27.63;101759.22;5101213;27;45356;-56
2023/10/03 12:09:31;;;;;;;;;5.00;4.00;;;;;36.67;25.76;101762.63;5100815;27;45448;-56
2023/10/03 12:11:57;;;;;;;;;2.25;2.25;;;;;36.81;25.53;101765.41;5100771;27;45395;-57
2023/10/03 12:14:23;;;;;;;;;2.50;1.75;;;;;36.81;24.23;101769.06;5100779;27;45260;-56
2023/10/03 12:16:51;;;;;;;;;1.00;1.00;;;;;36.14;25.21;101789.69;5101054;27;45491;-57
2023/10/03 12:19:19;;;;;;;;;3.25;1.75;;;;;34.95;27.32;101813.41;5100434;27;45541;-57
2023/10/03 12:21:45;;;;;;;;;2.50;2.50;;;;;33.31;28.63;101813.41;5100603;27;46270;-57
2023/10/03 12:24:10;;;;;;;;;1.00;1.00;;;;;32.54;30.01;101798.06;5100738;27;45314;-55
2023/10/03 12:26:35;;;;;;;;;3.00;3.00;;;;;32.76;29.83;101811.06;5100681;27;45522;-58
2023/10/03 12:29:04;;;;;;;;;1.00;1.00;;;;;32.88;29.42;101822.56;5100379;27;45537;-58
2023/10/03 12:31:30;;;;;;;;;1.00;1.00;;;;;33.36;27.90;101804.47;5100447;27;47462;-57
2023/10/03 12:33:56;;;;;;;;;1.00;1.00;;;;;33.87;27.65;101818.38;5100343;27;45172;-55
2023/10/03 12:36:21;;;;;;;;;1.00;0.00;;;;;34.59;25.76;101824.69;5100749;27;45291;-57
2023/10/03 12:38:48;;;;;;;;;3.75;2.00;;;;;35.28;25.60;101822.00;5100398;27;45480;-56
2023/10/03 12:41:13;;;;;;;;;2.25;2.25;;;;;35.64;25.32;101819.78;5100132;27;45466;-56
2023/10/03 12:43:46;;;;;;;;;2.00;2.00;;;;;35.98;25.49;101812.41;5100055;27;50374;-57
2023/10/03 12:46:13;;;;;;;;;1.00;1.00;;;;;36.67;23.88;101837.22;5100475;27;45511;-57
2023/10/03 12:48:39;;;;;;;;;1.25;1.00;;;;;37.12;24.46;101841.88;5099428;27;45706;-57
2023/10/03 12:51:04;;;;;;;;;1.00;1.00;;;;;36.55;23.61;101858.47;5099909;27;46277;-58
2023/10/03 12:53:35;;;;;;;;;0.25;0.00;;;;;35.81;24.14;101853.81;5099803;27;56101;-57
2023/10/03 12:56:02;;;;;;;;;1.00;1.00;;;;;35.11;25.07;101854.03;5100240;27;45298;-56
2023/10/03 12:58:27;;;;;;;;;0.75;0.75;;;;;34.59;24.83;101858.13;5099054;27;45876;-56
2023/10/03 13:00:52;;;;;;;;;0.75;0.75;;;;;34.03;25.86;101866.28;5099792;27;47085;-57
2023/10/03 13:03:19;;;;;;;;;2.00;0.25;;;;;33.61;26.59;101869.81;5100435;27;45378;-57
2023/10/03 13:05:45;;;;;;;;;0.00;0.00;;;;;33.29;26.84;101875.78;5100502;27;45389;-56
2023/10/03 13:08:11;;;;;;;;;0.75;0.75;;;;;32.76;27.71;101879.63;5100132;27;45315;-58
2023/10/03 13:10:38;;;;;;;;;0.00;0.00;;;;;32.84;27.60;101894.28;5099793;27;46146;-54
2023/10/03 13:13:05;;;;;;;;;2.00;1.00;;;;;33.13;27.17;101873.16;5100257;27;45345;-54
2023/10/03 13:15:31;;;;;;;;;1.75;1.75;;;;;34.11;25.50;101880.09;5100077;27;45329;-57
2023/10/03 13:17:57;;;;;;;;;0.75;0.75;;;;;34.74;25.33;101886.78;5099909;27;45346;-57
2023/10/03 13:20:24;;;;;;;;;1.75;0.75;;;;;34.69;26.16;101885.63;5099770;27;47073;-57
2023/10/03 13:22:50;;;;;;;;;0.75;0.75;;;;;34.58;26.11;101892.59;5100308;27;45334;-57
2023/10/03 13:25:20;;;;;;;;;1.00;1.00;;;;;34.64;25.92;101882.56;5099723;27;45463;-58
2023/10/03 13:27:47;;;;;;;;;0.00;0.00;;;;;35.19;25.70;101887.31;5099913;27;45278;-58
2023/10/03 13:30:18;;;;;;;;;2.00;0.50;;;;;34.82;25.29;101889.41;5099795;27;45454;-57
2023/10/03 13:32:48;;;;;;;;;0.75;0.75;;;;;34.89;25.81;101886.66;5099927;27;45271;-56
2023/10/03 13:35:13;;;;;;;;;0.75;0.75;;;;;35.18;25.25;101886.47;5099630;27;45360;-56
2023/10/03 13:37:39;;;;;;;;;1.25;1.25;;;;;35.78;24.55;101886.84;5099820;27;45337;-55
2023/10/03 13:40:06;;;;;;;;;1.00;1.00;;;;;36.25;24.21;101886.78;5099199;27;46259;-58
2023/10/03 13:42:32;;;;;;;;;2.00;2.00;;;;;36.90;23.68;101878.72;5099852;27;45327;-58
2023/10/03 13:44:57;;;;;;;;;2.00;2.00;;;;;37.03;22.38;101895.47;5099568;27;45468;-57
2023/10/03 13:47:22;;;;;;;;;1.25;1.25;;;;;37.53;21.53;101893.88;5099392;27;45855;-56
2023/10/03 13:49:49;;;;;;;;;1.00;1.00;;;;;37.81;21.65;101913.19;5099164;27;45868;-57
2023/10/03 13:52:16;;;;;;;;;1.00;1.00;;;;;37.74;21.53;101910.41;5099608;27;45243;-57
2023/10/03 13:54:42;;;;;;;;;2.00;2.00;;;;;37.97;20.71;101917.41;5099559;27;45361;-56
2023/10/03 13:57:07;;;;;;;;;1.00;1.00;;;;;37.72;20.83;101908.91;5099688;27;45406;-56
2023/10/03 13:59:33;;;;;;;;;1.33;1.33;;;;;37.74;20.51;101927.22;5098928;27;56805;-58
2023/10/03 14:02:00;;;;;;;;;2.00;2.00;;;;;37.67;21.48;101929.19;5101940;27;45343;-56
2023/10/03 14:04:27;;;;;;;;;2.00;1.00;;;;;37.25;21.92;101938.06;5103273;27;45367;-56
2023/10/03 14:06:54;;;;;;;;;1.75;1.50;;;;;36.93;22.12;101942.56;5102991;27;45373;-56
2023/10/03 14:09:27;;;;;;;;;2.25;0.75;;;;;36.49;21.54;101960.78;5102737;27;46258;-56
2023/10/03 14:11:56;;;;;;;;;1.75;1.75;;;;;36.45;22.09;101944.63;5102925;27;45519;-57
2023/10/03 14:14:21;;;;;;;;;1.00;1.00;;;;;36.70;22.34;101938.25;5102987;27;45233;-57
2023/10/03 14:16:47;;;;;;;;;0.00;0.00;;;;;36.08;23.10;101955.22;5102748;27;45480;-56
2023/10/03 14:19:12;;;;;;;;;1.00;1.00;;;;;35.94;22.58;101961.84;5102155;27;61754;-57
2023/10/03 14:21:37;;;;;;;;;1.00;1.00;;;;;35.05;22.46;101981.13;5102419;27;56372;-56
2023/10/03 14:24:03;;;;;;;;;2.25;0.00;;;;;34.04;23.64;101979.34;5102456;27;52008;-56
2023/10/03 14:26:28;;;;;;;;;2.00;2.00;;;;;33.77;24.02;101994.81;5102315;27;45296;-55
2023/10/03 14:28:55;;;;;;;;;2.00;0.75;;;;;33.43;23.77;101997.28;5102535;27;45967;-56
2023/10/03 14:31:20;;;;;;;;;1.25;1.25;;;;;33.02;23.83;102002.31;5102839;27;45643;-57
2023/10/03 14:33:45;;;;;;;;;0.00;0.00;;;;;32.98;23.43;101987.94;5102495;27;45562;-54
2023/10/03 14:36:14;;;;;;;;;1.00;1.00;;;;;33.11;23.06;101989.22;5102068;27;57725;-57
2023/10/03 14:38:40;;;;;;;;;1.00;1.00;;;;;33.49;22.28;102004.00;5102366;27;46331;-57
2023/10/03 14:41:05;;;;;;;;;0.00;0.00;;;;;34.06;22.01;102012.56;5101578;27;45356;-57
2023/10/03 14:43:32;;;;;;;;;0.00;0.00;;;;;34.36;21.81;102003.13;5102511;27;45238;-57
2023/10/03 14:46:00;;;;;;;;;1.00;1.00;;;;;34.44;22.51;101994.66;5102214;27;45540;-58
2023/10/03 14:48:25;;;;;;;;;0.50;0.50;;;;;34.69;22.46;102009.06;5101906;27;46438;-57
2023/10/03 14:50:57;;;;;;;;;0.50;0.50;;;;;35.14;22.46;101999.44;5102010;27;45313;-56
2023/10/03 14:53:23;;;;;;;;;2.00;0.75;;;;;35.33;22.05;102016.56;5102440;27;45338;-57
2023/10/03 14:55:49;;;;;;;;;1.00;1.00;;;;;35.13;22.54;102013.59;5101694;27;45370;-58
2023/10/03 14:58:14;;;;;;;;;2.00;1.00;;;;;35.06;21.79;102021.88;5101838;27;46245;-58
2023/10/03 15:00:42;;;;;;;;;1.50;1.50;;;;;35.21;21.61;102038.56;5102325;27;45301;-58
2023/10/03 15:03:09;;;;;;;;;1.00;1.00;;;;;34.70;21.17;102023.88;5102159;27;45385;-58
2023/10/03 15:05:35;;;;;;;;;0.00;0.00;;;;;34.48;20.22;102025.75;5101823;27;45498;-59
2023/10/03 15:08:01;;;;;;;;;1.00;1.00;;;;;34.08;20.27;102028.00;5101638;27;46244;-58
2023/10/03 15:10:29;;;;;;;;;4.75;1.00;;;;;34.10;20.31;102025.03;5101783;27;45227;-58
2023/10/03 15:12:55;;;;;;;;;0.50;0.50;;;;;33.68;20.94;102034.03;5101848;27;45396;-58
2023/10/03 15:15:20;;;;;;;;;0.00;0.00;;;;;33.42;21.29;102049.25;5102098;27;45344;-58
2023/10/03 15:17:45;;;;;;;;;1.00;0.50;;;;;33.63;21.83;102050.41;5101754;27;46282;-58
2023/10/03 15:20:11;;;;;;;;;1.25;1.00;;;;;33.49;21.46;102045.72;5101519;27;45255;-58
2023/10/03 15:22:38;;;;;;;;;3.00;1.00;;;;;33.36;22.17;102038.88;5101844;27;45470;-57
2023/10/03 15:25:05;;;;;;;;;1.25;0.50;;;;;33.33;22.24;102053.16;5101838;27;45542;-57
2023/10/03 15:27:31;;;;;;;;;0.00;0.00;;;;;33.18;22.50;102057.75;5101539;27;46977;-58
2023/10/03 15:29:59;;;;;;;;;2.00;1.00;;;;;33.23;22.86;102069.22;5102064;27;45239;-57
2023/10/03 15:32:24;;;;;;;;;0.50;0.50;;;;;33.25;23.15;102055.16;5102040;27;45366;-58
2023/10/03 15:34:50;;;;;;;;;2.00;1.00;;;;;33.33;22.83;102064.28;5101650;27;46290;-57
2023/10/03 15:37:17;;;;;;;;;2.00;1.00;;;;;33.41;22.76;102053.09;5101221;27;56373;-57
2023/10/03 15:39:43;;;;;;;;;0.00;0.00;;;;;33.33;22.71;102053.16;5101335;27;45434;-56
2023/10/03 15:42:09;;;;;;;;;0.25;0.25;;;;;33.06;22.75;102050.94;5096635;27;45417;-59
2023/10/03 15:44:37;;;;;;;;;0.25;0.25;;;;;32.67;23.34;102059.31;5093013;27;45512;-58
2023/10/03 15:47:03;;;;;;;;;0.75;0.75;;;;;32.48;23.65;102062.59;5099758;27;45744;-56
2023/10/03 15:49:29;;;;;;;;;0.00;0.00;;;;;32.65;23.08;102065.09;5101041;27;45440;-58
2023/10/03 15:51:54;;;;;;;;;0.00;0.00;;;;;32.51;22.91;102063.06;5101287;27;45464;-58
2023/10/03 15:54:20;;;;;;;;;0.00;0.00;;;;;32.43;23.21;102077.00;5099628;27;45657;-58
2023/10/03 15:56:45;;;;;;;;;0.75;0.75;;;;;32.13;23.58;102084.22;5100940;27;46494;-58
2023/10/03 15:59:12;;;;;;;;;0.00;0.00;;;;;32.00;23.12;102085.81;5101244;27;45384;-58
2023/10/03 16:01:38;;;;;;;;;1.00;1.00;;;;;32.05;23.90;102098.13;5101226;27;45422;-58
2023/10/03 16:04:05;;;;;;;;;0.75;0.75;;;;;31.74;24.09;102109.09;5100683;27;45473;-58
2023/10/03 16:06:32;;;;;;;;;1.50;1.50;;;;;31.43;24.03;102088.66;5100754;27;46160;-57
2023/10/03 16:08:58;;;;;;;;;1.00;1.00;;;;;31.38;24.15;102107.72;5100860;27;45335;-56
2023/10/03 16:11:24;;;;;;;;;0.75;0.75;;;;;31.29;24.42;102122.63;5100563;27;45336;-58
2023/10/03 16:13:51;;;;;;;;;0.00;0.00;;;;;31.25;24.43;102124.00;5100705;27;45465;-58
2023/10/03 16:16:16;;;;;;;;;2.00;0.00;;;;;31.30;24.62;102139.09;5100614;27;46096;-58
2023/10/03 16:18:43;;;;;;;;;0.00;0.00;;;;;31.10;25.00;102130.22;5100715;27;45379;-58
2023/10/03 16:21:09;;;;;;;;;3.25;1.25;;;;;30.92;25.10;102121.16;5100649;27;45237;-58
2023/10/03 16:23:34;;;;;;;;;0.00;0.00;;;;;31.18;25.21;102127.47;5099870;27;45567;-56
2023/10/03 16:26:01;;;;;;;;;1.25;0.75;;;;;30.94;25.18;102135.69;5100252;27;45982;-57
2023/10/03 16:28:27;;;;;;;;;0.75;0.75;;;;;30.76;25.17;102132.19;5100197;27;45455;-57
2023/10/03 16:30:52;;;;;;;;;0.50;0.50;;;;;30.45;25.66;102132.72;5100362;27;45402;-57
2023/10/03 16:33:18;;;;;;;;;2.00;0.00;;;;;30.48;25.72;102140.69;5100285;27;45190;-57
2023/10/03 16:35:44;;;;;;;;;2.00;1.00;;;;;30.37;25.69;102140.97;5100176;27;46338;-57
2023/10/03 16:38:10;;;;;;;;;0.00;0.00;;;;;30.38;26.13;102148.25;5100159;27;45429;-57
2023/10/03 16:40:36;;;;;;;;;0.75;0.75;;;;;30.33;25.95;102164.50;5098680;27;45396;-58
2023/10/03 16:43:02;;;;;;;;;0.50;0.50;;;;;30.19;26.76;102156.81;5100202;27;45382;-57
2023/10/03 16:45:29;;;;;;;;;0.00;0.00;;;;;29.85;26.92;102142.91;5099901;27;45297;-55
2023/10/03 16:47:56;;;;;;;;;0.75;0.75;;;;;29.50;26.98;102162.31;5100127;27;45387;-58
2023/10/03 16:50:22;;;;;;;;;0.75;0.00;;;;;29.39;27.62;102166.19;5094317;27;45389;-60
2023/10/03 16:52:47;;;;;;;;;0.50;0.50;;;;;29.52;27.31;102165.81;5091172;27;45600;-59
2023/10/03 16:55:14;;;;;;;;;3.00;2.00;;;;;29.58;27.11;102166.03;5084530;27;45367;-61
2023/10/03 16:57:40;;;;;;;;;3.00;1.00;;;;;29.46;27.57;102159.00;5088776;27;45536;-61
2023/10/03 17:00:12;;;;;;;;;1.25;0.75;;;;;29.44;27.49;102165.72;5095378;27;45445;-61
2023/10/03 17:02:39;;;;;;;;;2.50;1.00;;;;;29.42;27.29;102176.94;5100131;27;45544;-60
2023/10/03 17:05:09;;;;;;;;;1.00;0.50;;;;;29.27;27.59;102189.50;5100076;27;46328;-61
2023/10/03 17:07:39;;;;;;;;;1.50;1.50;;;;;29.22;28.19;102201.06;5099983;27;45262;-61
2023/10/03 17:10:06;;;;;;;;;1.50;1.50;;;;;29.18;28.03;102194.09;5099922;27;45337;-61
2023/10/03 17:12:32;;;;;;;;;1.50;1.50;;;;;29.21;28.27;102203.97;5099682;27;45396;-60
2023/10/03 17:14:57;;;;;;;;;2.25;1.00;;;;;29.21;28.32;102193.78;5099691;27;46313;-61
2023/10/03 17:17:23;;;;;;;;;0.50;0.50;;;;;29.27;28.50;102189.50;5099836;27;45350;-60
2023/10/03 17:19:48;;;;;;;;;5.25;2.75;;;;;29.34;28.04;102198.94;5099897;27;45393;-59
2023/10/03 17:22:13;;;;;;;;;0.50;0.50;;;;;29.07;28.21;102177.75;5099329;27;55900;-59
2023/10/03 17:24:38;;;;;;;;;4.50;2.00;;;;;29.09;28.70;102197.81;5099289;27;57187;-60